createdAt,value
2023-03-30T00:00:25.640Z,76.40
2023-03-30T00:01:25.620Z,77.10
2023-03-30T00:02:25.609Z,79.90
2023-03-30T00:03:25.706Z,70.70
2023-03-30T00:04:25.741Z,68.50
2023-03-30T00:05:25.578Z,70.50
2023-03-30T00:06:25.580Z,69.40
2023-03-30T00:07:25.551Z,68.70
2023-03-30T00:08:25.573Z,66.90
2023-03-30T00:09:25.546Z,63.80
2023-03-30T00:10:25.554Z,61.50
2023-03-30T00:11:25.514Z,66.30
2023-03-30T00:12:25.506Z,61.20
2023-03-30T00:13:25.520Z,58.70
2023-03-30T00:14:25.491Z,55.80
2023-03-30T00:15:25.485Z,47.40
2023-03-30T00:16:25.525Z,43.20
2023-03-30T00:17:31.999Z,44.80
2023-03-30T00:18:33.346Z,45.00
2023-03-30T00:19:25.425Z,43.50
2023-03-30T00:20:25.430Z,38.60
2023-03-30T00:21:25.419Z,37.10
2023-03-30T00:22:31.891Z,33.20
2023-03-30T00:23:25.451Z,30.40
2023-03-30T00:24:25.383Z,26.20
2023-03-30T00:25:25.364Z,24.50
2023-03-30T00:26:25.381Z,22.90
2023-03-30T00:27:25.351Z,23.60
2023-03-30T00:28:25.395Z,20.70
2023-03-30T00:29:25.322Z,16.40
2023-03-30T00:30:25.323Z,14.40
2023-03-30T00:31:25.370Z,14.00
2023-03-30T00:32:25.340Z,11.00
2023-03-30T00:33:37.170Z,9.80
2023-03-30T00:34:25.287Z,8.90
2023-03-30T00:35:25.295Z,8.00
2023-03-30T00:36:25.260Z,7.80
2023-03-30T00:37:25.242Z,6.80
2023-03-30T00:38:25.266Z,8.50
2023-03-30T00:39:25.222Z,8.30
2023-03-30T00:40:25.212Z,8.50
2023-03-30T00:41:25.208Z,6.30
2023-03-30T00:42:25.214Z,6.90
2023-03-30T00:43:25.201Z,7.10
2023-03-30T00:44:25.179Z,7.00
2023-03-30T00:45:25.169Z,7.10
2023-03-30T00:46:25.178Z,6.70
2023-03-30T00:47:25.186Z,7.00
2023-03-30T00:48:25.172Z,5.80
2023-03-30T00:49:25.125Z,5.50
2023-03-30T00:50:25.142Z,6.30
2023-03-30T00:51:25.103Z,5.70
2023-03-30T00:52:25.120Z,5.40
2023-03-30T00:53:25.103Z,5.40
2023-03-30T00:54:25.099Z,5.20
2023-03-30T00:55:25.059Z,5.00
2023-03-30T00:56:25.049Z,5.40
2023-03-30T00:57:25.138Z,4.30
2023-03-30T00:58:25.063Z,4.80
2023-03-30T00:59:25.052Z,5.20
2023-03-30T01:00:25.029Z,3.80
2023-03-30T01:01:25.023Z,3.90
2023-03-30T01:02:25.064Z,4.00
2023-03-30T01:03:25.078Z,3.40
2023-03-30T01:04:24.979Z,3.00
2023-03-30T01:05:24.963Z,3.00
2023-03-30T01:06:24.970Z,2.40
2023-03-30T01:07:24.937Z,2.30
2023-03-30T01:08:24.969Z,2.60
2023-03-30T01:09:24.912Z,2.40
2023-03-30T01:10:24.921Z,2.30
2023-03-30T01:11:24.904Z,2.20
2023-03-30T01:12:24.913Z,2.10
2023-03-30T01:13:24.874Z,2.20
2023-03-30T01:14:24.896Z,1.60
2023-03-30T01:15:24.897Z,1.80
2023-03-30T01:16:24.880Z,1.70
2023-03-30T01:17:24.899Z,1.70
2023-03-30T01:18:24.836Z,2.00
2023-03-30T01:19:24.835Z,1.70
2023-03-30T01:20:24.804Z,1.30
2023-03-30T01:21:24.802Z,1.60
2023-03-30T01:22:24.788Z,1.30
2023-03-30T01:23:24.777Z,1.50
2023-03-30T01:24:24.802Z,1.20
2023-03-30T01:25:24.751Z,1.50
2023-03-30T01:26:24.752Z,1.00
2023-03-30T01:27:24.739Z,1.40
2023-03-30T01:28:24.722Z,1.20
2023-03-30T01:29:24.768Z,1.10
2023-03-30T01:30:24.732Z,1.20
2023-03-30T01:31:24.780Z,1.30
2023-03-30T01:32:24.719Z,1.20
2023-03-30T01:33:24.675Z,1.10
2023-03-30T01:34:24.682Z,1.20
2023-03-30T01:35:24.795Z,1.30
2023-03-30T01:36:24.717Z,1.10
2023-03-30T01:37:24.627Z,1.50
2023-03-30T01:38:24.621Z,1.40
2023-03-30T01:39:24.630Z,1.40
2023-03-30T01:40:24.598Z,1.10
2023-03-30T01:41:24.586Z,1.00
2023-03-30T01:42:24.601Z,1.10
2023-03-30T01:43:24.577Z,0.90
2023-03-30T01:44:24.581Z,1.30
2023-03-30T01:45:24.554Z,1.00
2023-03-30T01:46:24.593Z,1.10
2023-03-30T01:47:24.540Z,1.30
2023-03-30T01:48:24.511Z,1.30
2023-03-30T01:49:24.536Z,1.10
2023-03-30T01:50:24.494Z,0.90
2023-03-30T01:51:24.489Z,1.00
2023-03-30T01:52:24.529Z,1.20
2023-03-30T01:53:24.472Z,1.50
2023-03-30T01:54:24.490Z,1.70
2023-03-30T01:55:24.456Z,1.20
2023-03-30T01:56:24.435Z,0.90
2023-03-30T01:57:24.454Z,1.10
2023-03-30T01:58:24.429Z,1.20
2023-03-30T01:59:24.418Z,1.30
2023-03-30T02:00:24.427Z,1.00
2023-03-30T02:01:24.415Z,1.20
2023-03-30T02:02:24.466Z,1.20
2023-03-30T02:03:24.466Z,1.10
2023-03-30T02:04:24.347Z,1.00
2023-03-30T02:05:24.375Z,1.80
2023-03-30T02:06:24.328Z,0.90
2023-03-30T02:07:24.317Z,1.10
2023-03-30T02:08:24.314Z,1.10
2023-03-30T02:09:24.298Z,1.20
2023-03-30T02:10:24.301Z,1.10
2023-03-30T02:11:24.297Z,1.50
2023-03-30T02:12:24.269Z,1.10
2023-03-30T02:13:24.280Z,1.20
2023-03-30T02:14:24.263Z,1.10
2023-03-30T02:15:24.261Z,1.10
2023-03-30T02:16:24.292Z,1.00
2023-03-30T02:17:24.249Z,1.30
2023-03-30T02:18:24.203Z,1.30
2023-03-30T02:19:24.191Z,1.10
2023-03-30T02:20:24.212Z,1.10
2023-03-30T02:21:24.171Z,1.60
2023-03-30T02:22:24.154Z,1.10
2023-03-30T02:23:24.181Z,1.10
2023-03-30T02:24:24.147Z,1.10
2023-03-30T02:25:24.156Z,1.10
2023-03-30T02:26:24.162Z,1.30
2023-03-30T02:27:24.164Z,1.10
2023-03-30T02:28:24.108Z,1.40
2023-03-30T02:29:24.130Z,1.20
2023-03-30T02:30:24.098Z,1.30
2023-03-30T02:31:24.105Z,1.40
2023-03-30T02:32:24.065Z,1.20
2023-03-30T02:33:24.059Z,1.60
2023-03-30T02:34:24.051Z,0.90
2023-03-30T02:35:24.058Z,1.60
2023-03-30T02:36:24.027Z,1.20
2023-03-30T02:37:24.015Z,1.60
2023-03-30T02:38:30.498Z,0.90
2023-03-30T02:39:24.010Z,1.00
2023-03-30T02:40:24.003Z,1.70
2023-03-30T02:41:23.976Z,1.40
2023-03-30T02:42:23.954Z,1.30
2023-03-30T02:43:23.976Z,1.30
2023-03-30T02:44:23.940Z,1.00
2023-03-30T02:45:23.951Z,1.40
2023-03-30T02:46:23.964Z,1.50
2023-03-30T02:47:23.903Z,1.20
2023-03-30T02:48:23.903Z,1.10
2023-03-30T02:49:23.881Z,1.20
2023-03-30T02:50:23.926Z,1.20
2023-03-30T02:51:23.856Z,1.20
2023-03-30T02:52:23.850Z,1.30
2023-03-30T02:53:23.841Z,1.20
2023-03-30T02:54:23.846Z,0.90
2023-03-30T02:55:23.841Z,1.40
2023-03-30T02:56:23.813Z,1.00
2023-03-30T02:57:23.870Z,1.10
2023-03-30T02:58:23.822Z,1.00
2023-03-30T02:59:23.771Z,1.30
2023-03-30T03:00:23.801Z,1.30
2023-03-30T03:01:23.783Z,1.20
2023-03-30T03:02:23.780Z,1.00
2023-03-30T03:03:23.949Z,1.10
2023-03-30T03:04:23.750Z,1.30
2023-03-30T03:05:23.768Z,0.90
2023-03-30T03:06:23.714Z,1.10
2023-03-30T03:07:23.692Z,1.30
2023-03-30T03:08:23.698Z,1.30
2023-03-30T03:09:23.675Z,1.10
2023-03-30T03:10:23.700Z,1.30
2023-03-30T03:11:23.652Z,1.10
2023-03-30T03:12:23.666Z,0.90
2023-03-30T03:13:23.624Z,1.40
2023-03-30T03:14:23.623Z,1.10
2023-03-30T03:15:23.650Z,1.10
2023-03-30T03:16:23.651Z,0.80
2023-03-30T03:17:23.595Z,1.00
2023-03-30T03:18:23.594Z,2.20
2023-03-30T03:19:23.578Z,1.00
2023-03-30T03:20:23.562Z,1.10
2023-03-30T03:21:23.568Z,0.90
2023-03-30T03:22:23.552Z,1.10
2023-03-30T03:23:23.520Z,1.20
2023-03-30T03:24:23.520Z,1.40
2023-03-30T03:25:23.505Z,0.90
2023-03-30T03:26:23.524Z,1.10
2023-03-30T03:27:23.490Z,1.40
2023-03-30T03:28:23.485Z,1.20
2023-03-30T03:29:23.468Z,1.00
2023-03-30T03:30:23.456Z,1.30
2023-03-30T03:31:23.513Z,1.10
2023-03-30T03:32:23.468Z,1.00
2023-03-30T03:33:23.438Z,1.20
2023-03-30T03:34:23.425Z,1.40
2023-03-30T03:35:23.394Z,1.20
2023-03-30T03:36:23.449Z,1.20
2023-03-30T03:37:23.380Z,1.30
2023-03-30T03:38:23.380Z,1.20
2023-03-30T03:39:23.368Z,1.30
2023-03-30T03:40:23.370Z,1.30
2023-03-30T03:41:23.365Z,1.20
2023-03-30T03:42:23.337Z,1.00
2023-03-30T03:43:23.312Z,1.20
2023-03-30T03:44:23.436Z,1.20
2023-03-30T03:45:23.289Z,1.40
2023-03-30T03:46:23.365Z,1.60
2023-03-30T03:47:23.365Z,1.20
2023-03-30T03:48:23.263Z,1.20
2023-03-30T03:49:23.252Z,1.00
2023-03-30T03:50:23.247Z,1.40
2023-03-30T03:51:23.245Z,1.10
2023-03-30T03:52:23.231Z,1.10
2023-03-30T03:53:23.214Z,1.70
2023-03-30T03:54:23.210Z,1.50
2023-03-30T03:55:23.206Z,1.20
2023-03-30T03:56:23.225Z,1.30
2023-03-30T03:57:23.274Z,1.60
2023-03-30T03:58:23.161Z,1.30
2023-03-30T03:59:23.164Z,1.30
2023-03-30T04:00:23.159Z,1.60
2023-03-30T04:01:23.174Z,1.40
2023-03-30T04:02:24.145Z,1.70
2023-03-30T04:03:23.173Z,1.30
2023-03-30T04:04:23.156Z,1.40
2023-03-30T04:05:23.088Z,1.50
2023-03-30T04:06:23.106Z,1.40
2023-03-30T04:07:23.056Z,1.40
2023-03-30T04:08:23.059Z,1.40
2023-03-30T04:09:23.171Z,1.20
2023-03-30T04:10:23.059Z,1.40
2023-03-30T04:11:23.041Z,1.10
2023-03-30T04:12:23.071Z,1.20
2023-03-30T04:13:23.069Z,1.40
2023-03-30T04:14:23.002Z,1.20
2023-03-30T04:15:23.015Z,1.40
2023-03-30T04:16:23.048Z,1.50
2023-03-30T04:17:23.001Z,1.20
2023-03-30T04:18:22.956Z,0.90
2023-03-30T04:19:22.942Z,1.20
2023-03-30T04:20:22.938Z,1.00
2023-03-30T04:21:22.995Z,1.10
2023-03-30T04:22:22.909Z,1.20
2023-03-30T04:23:22.902Z,1.00
2023-03-30T04:24:22.905Z,1.10
2023-03-30T04:25:23.057Z,1.40
2023-03-30T04:26:22.884Z,1.20
2023-03-30T04:27:22.849Z,1.20
2023-03-30T04:28:22.845Z,1.30
2023-03-30T04:29:22.858Z,1.10
2023-03-30T04:30:23.226Z,1.10
2023-03-30T04:31:23.004Z,1.20
2023-03-30T04:32:22.875Z,1.00
2023-03-30T04:33:22.791Z,1.30
2023-03-30T04:34:22.801Z,0.90
2023-03-30T04:35:22.784Z,1.10
2023-03-30T04:36:22.787Z,1.10
2023-03-30T04:37:22.782Z,1.10
2023-03-30T04:38:22.768Z,1.10
2023-03-30T04:39:22.736Z,1.10
2023-03-30T04:40:22.721Z,1.00
2023-03-30T04:41:22.742Z,1.40
2023-03-30T04:42:22.713Z,1.10
2023-03-30T04:43:22.714Z,0.90
2023-03-30T04:44:22.643Z,1.10
2023-03-30T04:45:22.680Z,1.10
2023-03-30T04:46:22.727Z,1.10
2023-03-30T04:47:22.662Z,0.90
2023-03-30T04:48:22.616Z,1.30
2023-03-30T04:49:22.588Z,1.30
2023-03-30T04:50:22.590Z,1.00
2023-03-30T04:51:22.592Z,0.90
2023-03-30T04:52:22.683Z,0.90
2023-03-30T04:53:22.600Z,1.10
2023-03-30T04:54:22.545Z,0.90
2023-03-30T04:55:22.571Z,0.80
2023-03-30T04:56:22.535Z,1.00
2023-03-30T04:57:22.629Z,1.00
2023-03-30T04:58:22.532Z,1.30
2023-03-30T04:59:22.529Z,0.90
2023-03-30T05:00:22.459Z,1.10
2023-03-30T05:01:22.519Z,1.00
2023-03-30T05:02:22.640Z,1.30
2023-03-30T05:03:23.523Z,1.00
2023-03-30T05:04:22.454Z,1.30
2023-03-30T05:05:22.407Z,1.30
2023-03-30T05:06:22.408Z,1.10
2023-03-30T05:07:22.410Z,1.00
2023-03-30T05:08:22.381Z,1.30
2023-03-30T05:09:22.381Z,1.00
2023-03-30T05:10:22.354Z,1.00
2023-03-30T05:11:22.342Z,1.00
2023-03-30T05:12:22.362Z,1.00
2023-03-30T05:13:23.509Z,1.10
2023-03-30T05:14:22.321Z,1.10
2023-03-30T05:15:22.406Z,1.20
2023-03-30T05:16:22.378Z,1.00
2023-03-30T05:17:22.352Z,1.00
2023-03-30T05:18:22.284Z,1.10
2023-03-30T05:19:22.260Z,1.00
2023-03-30T05:20:22.258Z,1.10
2023-03-30T05:21:22.254Z,0.90
2023-03-30T05:22:22.270Z,1.30
2023-03-30T05:23:22.229Z,1.00
2023-03-30T05:24:22.208Z,1.20
2023-03-30T05:25:22.196Z,1.30
2023-03-30T05:26:22.226Z,1.50
2023-03-30T05:27:22.201Z,1.40
2023-03-30T05:28:22.219Z,1.20
2023-03-30T05:29:22.157Z,1.50
2023-03-30T05:30:22.163Z,1.00
2023-03-30T05:31:22.176Z,1.10
2023-03-30T05:32:22.167Z,1.20
2023-03-30T05:33:22.164Z,1.40
2023-03-30T05:34:22.123Z,1.20
2023-03-30T05:35:22.106Z,1.20
2023-03-30T05:36:22.110Z,1.00
2023-03-30T05:37:22.117Z,1.00
2023-03-30T05:38:22.099Z,1.20
2023-03-30T05:39:22.055Z,1.10
2023-03-30T05:40:22.063Z,1.50
2023-03-30T05:41:22.036Z,1.30
2023-03-30T05:42:22.091Z,1.40
2023-03-30T05:43:22.007Z,1.10
2023-03-30T05:44:22.531Z,1.10
2023-03-30T05:45:21.990Z,1.10
2023-03-30T05:46:22.028Z,1.20
2023-03-30T05:47:22.188Z,1.10
2023-03-30T05:48:21.973Z,1.20
2023-03-30T05:49:21.948Z,1.40
2023-03-30T05:50:28.437Z,1.30
2023-03-30T05:51:28.424Z,1.30
2023-03-30T05:52:21.956Z,1.60
2023-03-30T05:53:21.918Z,1.20
2023-03-30T05:54:21.921Z,1.00
2023-03-30T05:55:21.894Z,1.00
2023-03-30T05:56:21.901Z,1.30
2023-03-30T05:57:21.917Z,1.20
2023-03-30T05:58:21.859Z,0.90
2023-03-30T05:59:21.875Z,1.30
2023-03-30T06:00:21.828Z,1.00
2023-03-30T06:01:21.849Z,0.80
2023-03-30T06:02:21.982Z,0.90
2023-03-30T06:03:21.891Z,1.00
2023-03-30T06:04:21.941Z,1.20
2023-03-30T06:05:21.800Z,0.90
2023-03-30T06:06:21.775Z,1.40
2023-03-30T06:07:21.758Z,1.00
2023-03-30T06:08:22.743Z,0.90
2023-03-30T06:09:21.745Z,1.10
2023-03-30T06:10:21.727Z,1.00
2023-03-30T06:11:21.723Z,1.00
2023-03-30T06:12:21.710Z,1.10
2023-03-30T06:13:21.733Z,0.90
2023-03-30T06:14:21.708Z,0.90
2023-03-30T06:15:21.681Z,0.80
2023-03-30T06:16:21.701Z,0.90
2023-03-30T06:17:21.655Z,0.80
2023-03-30T06:18:21.667Z,1.10
2023-03-30T06:19:21.652Z,0.80
2023-03-30T06:20:21.649Z,1.00
2023-03-30T06:21:21.623Z,1.30
2023-03-30T06:22:21.604Z,1.10
2023-03-30T06:23:21.616Z,0.80
2023-03-30T06:24:21.590Z,1.00
2023-03-30T06:25:21.592Z,0.90
2023-03-30T06:26:21.570Z,0.70
2023-03-30T06:27:21.565Z,0.80
2023-03-30T06:28:21.581Z,1.00
2023-03-30T06:29:21.528Z,1.20
2023-03-30T06:30:21.520Z,1.00
2023-03-30T06:31:21.560Z,1.20
2023-03-30T06:32:21.506Z,1.40
2023-03-30T06:33:21.525Z,1.20
2023-03-30T06:34:21.479Z,1.00
2023-03-30T06:35:21.477Z,1.20
2023-03-30T06:36:21.492Z,0.90
2023-03-30T06:37:21.460Z,1.00
2023-03-30T06:38:21.471Z,1.10
2023-03-30T06:39:21.438Z,1.10
2023-03-30T06:40:21.476Z,0.90
2023-03-30T06:41:21.608Z,0.80
2023-03-30T06:42:21.397Z,0.90
2023-03-30T06:43:21.412Z,1.00
2023-03-30T06:44:21.380Z,0.90
2023-03-30T06:45:21.376Z,1.20
2023-03-30T06:46:21.430Z,1.00
2023-03-30T06:47:21.410Z,1.20
2023-03-30T06:48:21.353Z,1.10
2023-03-30T06:49:21.321Z,1.00
2023-03-30T06:50:21.313Z,0.90
2023-03-30T06:51:21.312Z,1.40
2023-03-30T06:52:21.293Z,0.80
2023-03-30T06:53:21.367Z,1.20
2023-03-30T06:54:21.266Z,1.10
2023-03-30T06:55:21.722Z,1.10
2023-03-30T06:56:21.268Z,1.00
2023-03-30T06:57:21.349Z,1.00
2023-03-30T06:58:21.272Z,1.10
2023-03-30T06:59:21.248Z,0.80
2023-03-30T07:00:21.233Z,1.10
2023-03-30T07:01:21.263Z,1.10
2023-03-30T07:02:21.186Z,1.40
2023-03-30T07:03:21.194Z,1.20
2023-03-30T07:04:21.185Z,1.10
2023-03-30T07:05:21.164Z,1.00
2023-03-30T07:06:21.431Z,1.20
2023-03-30T07:07:21.152Z,1.20
2023-03-30T07:08:21.209Z,1.20
2023-03-30T07:09:21.145Z,1.20
2023-03-30T07:10:21.124Z,1.30
2023-03-30T07:11:21.103Z,1.30
2023-03-30T07:12:21.093Z,1.50
2023-03-30T07:13:21.076Z,1.30
2023-03-30T07:14:21.079Z,1.30
2023-03-30T07:15:21.085Z,1.20
2023-03-30T07:16:21.240Z,1.30
2023-03-30T07:17:21.033Z,1.20
2023-03-30T07:18:21.040Z,1.00
2023-03-30T07:19:21.061Z,1.30
2023-03-30T07:20:21.005Z,1.30
2023-03-30T07:21:21.043Z,1.20
2023-03-30T07:22:20.977Z,1.40
2023-03-30T07:23:21.017Z,1.40
2023-03-30T07:24:21.016Z,1.40
2023-03-30T07:25:20.958Z,1.80
2023-03-30T07:26:20.944Z,1.40
2023-03-30T07:27:22.282Z,1.50
2023-03-30T07:28:20.931Z,1.80
2023-03-30T07:29:20.984Z,1.70
2023-03-30T07:30:22.522Z,1.60
2023-03-30T07:31:20.949Z,2.20
2023-03-30T07:32:20.953Z,1.70
2023-03-30T07:33:20.901Z,2.10
2023-03-30T07:34:20.887Z,2.10
2023-03-30T07:35:20.908Z,2.20
2023-03-30T07:36:20.880Z,2.20
2023-03-30T07:37:21.110Z,2.00
2023-03-30T07:38:20.820Z,2.00
2023-03-30T07:39:20.886Z,2.00
2023-03-30T07:40:20.836Z,2.60
2023-03-30T07:41:20.814Z,2.60
2023-03-30T07:42:20.773Z,2.30
2023-03-30T07:43:20.766Z,2.80
2023-03-30T07:44:20.774Z,3.10
2023-03-30T07:45:20.765Z,3.10
2023-03-30T07:46:20.784Z,2.60
2023-03-30T07:47:20.751Z,2.90
2023-03-30T07:48:20.710Z,2.70
2023-03-30T07:49:20.721Z,3.30
2023-03-30T07:50:20.700Z,3.10
2023-03-30T07:51:20.694Z,3.30
2023-03-30T07:52:20.701Z,4.10
2023-03-30T07:53:20.682Z,4.90
2023-03-30T07:54:20.690Z,7.40
2023-03-30T07:55:20.656Z,9.20
2023-03-30T07:56:20.640Z,8.20
2023-03-30T07:57:20.669Z,10.50
2023-03-30T07:58:20.609Z,13.30
2023-03-30T07:59:20.635Z,15.80
2023-03-30T08:00:20.581Z,12.90
2023-03-30T08:01:20.584Z,14.00
2023-03-30T08:02:20.574Z,17.30
2023-03-30T08:03:20.692Z,17.70
2023-03-30T08:04:20.662Z,20.80
2023-03-30T08:05:20.627Z,23.50
2023-03-30T08:06:20.527Z,31.60
2023-03-30T08:07:20.527Z,38.30
2023-03-30T08:08:20.512Z,37.90
2023-03-30T08:09:20.538Z,46.30
2023-03-30T08:10:20.493Z,55.60
2023-03-30T08:11:20.498Z,62.50
2023-03-30T08:12:20.459Z,58.10
2023-03-30T08:13:21.983Z,56.90
2023-03-30T08:14:20.483Z,63.40
2023-03-30T08:15:20.425Z,60.50
2023-03-30T08:16:20.477Z,63.90
2023-03-30T08:17:20.406Z,54.90
2023-03-30T08:18:20.396Z,51.20
2023-03-30T08:19:20.388Z,57.10
2023-03-30T08:20:20.417Z,53.90
2023-03-30T08:21:20.382Z,65.00
2023-03-30T08:22:20.382Z,72.80
2023-03-30T08:23:20.386Z,76.50
2023-03-30T08:24:20.364Z,72.20
2023-03-30T08:25:20.405Z,62.60
2023-03-30T08:26:20.503Z,72.30
2023-03-30T08:27:20.347Z,71.30
2023-03-30T08:28:20.342Z,66.30
2023-03-30T08:29:20.305Z,55.20
2023-03-30T08:30:20.362Z,53.30
2023-03-30T08:31:20.322Z,62.40
2023-03-30T08:32:20.270Z,67.70
2023-03-30T08:33:20.258Z,74.30
2023-03-30T08:34:20.230Z,94.90
2023-03-30T08:35:20.288Z,86.50
2023-03-30T08:36:20.216Z,80.00
2023-03-30T08:37:20.199Z,79.30
2023-03-30T08:38:20.209Z,61.30
2023-03-30T08:39:20.202Z,60.20
2023-03-30T08:40:20.194Z,60.50
2023-03-30T08:41:20.175Z,53.10
2023-03-30T08:42:20.159Z,54.90
2023-03-30T08:43:20.163Z,53.90
2023-03-30T08:44:20.139Z,44.50
2023-03-30T08:45:20.317Z,30.60
2023-03-30T08:46:20.151Z,32.70
2023-03-30T08:47:20.157Z,32.50
2023-03-30T08:48:20.130Z,31.80
2023-03-30T08:49:20.083Z,34.20
2023-03-30T08:50:20.093Z,38.60
2023-03-30T08:51:20.107Z,43.70
2023-03-30T08:52:20.046Z,36.70
2023-03-30T08:53:20.034Z,32.60
2023-03-30T08:54:20.099Z,30.20
2023-03-30T08:55:20.050Z,30.60
2023-03-30T08:56:20.023Z,52.40
2023-03-30T08:57:21.077Z,51.10
2023-03-30T08:58:20.012Z,41.20
2023-03-30T08:59:19.993Z,29.30
2023-03-30T09:00:20.106Z,30.30
2023-03-30T09:01:19.994Z,32.10
2023-03-30T09:02:19.964Z,29.00
2023-03-30T09:03:19.987Z,27.30
2023-03-30T09:04:19.914Z,35.20
2023-03-30T09:05:20.027Z,28.80
2023-03-30T09:06:19.896Z,17.60
2023-03-30T09:07:19.906Z,8.70
2023-03-30T09:08:19.890Z,7.40
2023-03-30T09:09:19.861Z,9.20
2023-03-30T09:10:19.874Z,4.80
2023-03-30T09:11:19.844Z,5.90
2023-03-30T09:12:19.868Z,6.80
2023-03-30T09:13:19.842Z,3.90
2023-03-30T09:14:19.825Z,3.00
2023-03-30T09:15:19.834Z,2.40
2023-03-30T09:16:19.809Z,2.80
2023-03-30T09:17:19.787Z,3.20
2023-03-30T09:18:19.798Z,2.80
2023-03-30T09:19:19.771Z,2.20
2023-03-30T09:20:19.811Z,2.30
2023-03-30T09:21:19.772Z,2.80
2023-03-30T09:22:19.731Z,3.50
2023-03-30T09:23:19.731Z,2.90
2023-03-30T09:24:19.753Z,2.70
2023-03-30T09:25:19.724Z,2.80
2023-03-30T09:26:19.760Z,3.50
2023-03-30T09:27:19.692Z,3.20
2023-03-30T09:28:20.393Z,2.40
2023-03-30T09:29:19.670Z,3.00
2023-03-30T09:30:19.709Z,2.20
2023-03-30T09:31:21.331Z,1.60
2023-03-30T09:32:19.629Z,1.70
2023-03-30T09:33:19.641Z,1.40
2023-03-30T09:34:19.607Z,1.40
2023-03-30T09:35:19.627Z,1.30
2023-03-30T09:36:19.642Z,1.30
2023-03-30T09:37:19.622Z,1.00
2023-03-30T09:38:19.573Z,1.30
2023-03-30T09:39:19.580Z,1.30
2023-03-30T09:40:19.582Z,1.40
2023-03-30T09:41:19.566Z,2.40
2023-03-30T09:42:19.547Z,2.40
2023-03-30T09:43:19.553Z,2.30
2023-03-30T09:44:26.018Z,2.40
2023-03-30T09:45:19.543Z,1.60
2023-03-30T09:46:19.538Z,1.80
2023-03-30T09:47:19.480Z,2.10
2023-03-30T09:48:19.479Z,1.80
2023-03-30T09:49:19.457Z,1.70
2023-03-30T09:50:19.452Z,2.20
2023-03-30T09:51:19.459Z,2.30
2023-03-30T09:52:19.420Z,1.50
2023-03-30T09:53:19.420Z,1.30
2023-03-30T09:54:19.409Z,2.00
2023-03-30T09:55:19.398Z,2.20
2023-03-30T09:56:19.421Z,1.40
2023-03-30T09:57:19.425Z,1.60
2023-03-30T09:58:19.460Z,2.20
2023-03-30T09:59:19.351Z,2.10
2023-03-30T10:00:26.850Z,2.10
2023-03-30T10:01:19.382Z,2.00
2023-03-30T10:02:19.416Z,1.70
2023-03-30T10:03:19.527Z,1.50
2023-03-30T10:04:19.366Z,1.80
2023-03-30T10:05:19.310Z,1.70
2023-03-30T10:06:19.321Z,1.90
2023-03-30T10:07:19.281Z,1.10
2023-03-30T10:08:19.256Z,1.40
2023-03-30T10:09:19.257Z,1.30
2023-03-30T10:10:19.239Z,1.50
2023-03-30T10:11:19.312Z,1.60
2023-03-30T10:12:19.251Z,1.60
2023-03-30T10:13:19.207Z,1.20
2023-03-30T10:14:19.213Z,1.50
2023-03-30T10:15:19.182Z,1.40
2023-03-30T10:16:19.256Z,1.10
2023-03-30T10:17:19.169Z,1.30
2023-03-30T10:18:19.179Z,1.30
2023-03-30T10:19:19.151Z,1.20
2023-03-30T10:20:19.137Z,0.90
2023-03-30T10:21:19.141Z,1.40
2023-03-30T10:22:19.139Z,1.10
2023-03-30T10:23:19.101Z,0.70
2023-03-30T10:24:19.122Z,1.20
2023-03-30T10:25:19.086Z,1.50
2023-03-30T10:26:19.286Z,1.10
2023-03-30T10:27:19.080Z,1.30
2023-03-30T10:28:19.065Z,1.20
2023-03-30T10:29:19.044Z,1.10
2023-03-30T10:30:19.054Z,1.50
2023-03-30T10:31:19.086Z,1.60
2023-03-30T10:32:19.112Z,1.30
2023-03-30T10:33:19.012Z,1.20
2023-03-30T10:34:18.992Z,1.20
2023-03-30T10:35:18.987Z,1.10
2023-03-30T10:36:19.085Z,1.20
2023-03-30T10:37:18.983Z,1.10
2023-03-30T10:38:18.946Z,1.10
2023-03-30T10:39:18.934Z,1.20
2023-03-30T10:40:18.969Z,1.50
2023-03-30T10:41:18.939Z,1.10
2023-03-30T10:42:18.937Z,1.10
2023-03-30T10:43:18.903Z,1.30
2023-03-30T10:44:18.888Z,1.40
2023-03-30T10:45:18.911Z,1.40
2023-03-30T10:46:20.552Z,1.20
2023-03-30T10:47:19.090Z,1.50
2023-03-30T10:48:26.677Z,1.70
2023-03-30T10:49:25.360Z,1.40
2023-03-30T10:50:18.926Z,1.30
2023-03-30T10:51:26.605Z,1.50
2023-03-30T10:52:18.828Z,1.80
2023-03-30T10:53:18.805Z,1.80
2023-03-30T10:54:18.799Z,1.90
2023-03-30T10:55:18.800Z,1.30
2023-03-30T10:56:18.801Z,1.50
2023-03-30T10:57:18.867Z,1.40
2023-03-30T10:58:18.786Z,1.20
2023-03-30T10:59:18.726Z,1.40
2023-03-30T11:00:18.913Z,1.30
2023-03-30T11:01:18.792Z,1.40
2023-03-30T11:02:18.809Z,1.20
2023-03-30T11:03:18.858Z,1.00
2023-03-30T11:04:23.620Z,1.10
2023-03-30T11:05:18.676Z,0.90
2023-03-30T11:06:18.669Z,1.00
2023-03-30T11:07:18.695Z,1.40
2023-03-30T11:08:18.690Z,1.00
2023-03-30T11:09:18.642Z,1.10
2023-03-30T11:10:19.609Z,1.00
2023-03-30T11:11:18.620Z,1.20
2023-03-30T11:12:18.765Z,1.30
2023-03-30T11:13:21.569Z,1.60
2023-03-30T11:14:18.581Z,1.10
2023-03-30T11:15:18.614Z,0.90
2023-03-30T11:16:18.600Z,1.60
2023-03-30T11:17:18.575Z,1.00
2023-03-30T11:18:19.369Z,1.30
2023-03-30T11:19:18.598Z,1.10
2023-03-30T11:20:18.547Z,1.40
2023-03-30T11:21:18.501Z,0.80
2023-03-30T11:22:18.562Z,1.00
2023-03-30T11:23:18.519Z,1.00
2023-03-30T11:24:18.488Z,1.00
2023-03-30T11:25:18.470Z,1.10
2023-03-30T11:26:18.533Z,1.40
2023-03-30T11:27:18.595Z,1.10
2023-03-30T11:28:18.462Z,0.90
2023-03-30T11:29:18.440Z,0.90
2023-03-30T11:30:18.560Z,1.00
2023-03-30T11:31:18.721Z,1.00
2023-03-30T11:32:18.693Z,0.70
2023-03-30T11:33:18.414Z,1.40
2023-03-30T11:34:18.402Z,0.90
2023-03-30T11:35:18.424Z,1.10
2023-03-30T11:36:18.428Z,1.10
2023-03-30T11:37:18.363Z,1.20
2023-03-30T11:38:18.335Z,0.90
2023-03-30T11:39:31.250Z,1.00
2023-03-30T11:40:18.305Z,0.80
2023-03-30T11:41:18.325Z,0.60
2023-03-30T11:42:18.393Z,0.90
2023-03-30T11:43:19.008Z,0.70
2023-03-30T11:44:18.301Z,1.30
2023-03-30T11:45:18.270Z,0.90
2023-03-30T11:46:18.256Z,1.10
2023-03-30T11:47:18.253Z,0.90
2023-03-30T11:48:19.744Z,1.10
2023-03-30T11:49:18.282Z,1.20
2023-03-30T11:50:18.227Z,1.20
2023-03-30T11:51:18.225Z,1.00
2023-03-30T11:52:18.185Z,1.00
2023-03-30T11:53:18.191Z,0.90
2023-03-30T11:54:18.175Z,0.60
2023-03-30T11:55:18.228Z,0.70
2023-03-30T11:56:18.179Z,1.00
2023-03-30T11:57:18.148Z,1.10
2023-03-30T11:58:18.160Z,0.90
2023-03-30T11:59:18.862Z,1.10
2023-03-30T12:00:18.150Z,1.00
2023-03-30T12:01:18.133Z,1.50
2023-03-30T12:02:18.969Z,1.30
2023-03-30T12:03:18.220Z,1.00
2023-03-30T12:04:18.140Z,1.30
2023-03-30T12:05:18.046Z,0.80
2023-03-30T12:06:18.189Z,0.70
2023-03-30T12:07:18.058Z,1.20
2023-03-30T12:08:18.046Z,1.40
2023-03-30T12:09:18.005Z,1.00
2023-03-30T12:10:17.998Z,0.60
2023-03-30T12:11:18.150Z,0.70
2023-03-30T12:12:18.027Z,0.70
2023-03-30T12:13:18.048Z,1.20
2023-03-30T12:14:17.955Z,0.70
2023-03-30T12:15:18.056Z,1.00
2023-03-30T12:16:18.036Z,0.90
2023-03-30T12:17:17.922Z,0.60
2023-03-30T12:18:18.080Z,0.90
2023-03-30T12:19:18.870Z,1.20
2023-03-30T12:20:17.928Z,0.60
2023-03-30T12:21:17.872Z,0.80
2023-03-30T12:22:17.868Z,1.20
2023-03-30T12:23:17.875Z,1.20
2023-03-30T12:24:18.516Z,1.10
2023-03-30T12:25:17.989Z,0.50
2023-03-30T12:26:17.872Z,0.80
2023-03-30T12:27:17.836Z,0.80
2023-03-30T12:28:17.852Z,0.60
2023-03-30T12:30:17.830Z,1.10
2023-03-30T12:31:17.961Z,1.20
2023-03-30T12:32:18.469Z,0.90
2023-03-30T12:33:17.770Z,0.90
2023-03-30T12:34:17.766Z,1.00
2023-03-30T12:35:17.770Z,0.70
2023-03-30T12:36:17.765Z,0.90
2023-03-30T12:37:17.720Z,0.90
2023-03-30T12:38:19.852Z,0.80
2023-03-30T12:39:17.694Z,1.00
2023-03-30T12:40:17.694Z,1.40
2023-03-30T12:41:17.742Z,1.40
2023-03-30T12:42:17.780Z,0.90
2023-03-30T12:43:18.647Z,1.40
2023-03-30T12:44:17.702Z,1.20
2023-03-30T12:45:17.626Z,0.80
2023-03-30T12:46:17.666Z,0.90
2023-03-30T12:47:17.632Z,1.10
2023-03-30T12:48:17.607Z,0.90
2023-03-30T12:49:17.661Z,0.70
2023-03-30T12:50:17.591Z,0.70
2023-03-30T12:51:17.567Z,0.60
2023-03-30T12:52:17.616Z,0.90
2023-03-30T12:53:17.544Z,0.60
2023-03-30T12:54:17.587Z,0.60
2023-03-30T12:55:17.512Z,0.70
2023-03-30T12:56:17.512Z,0.50
2023-03-30T12:57:17.662Z,0.80
2023-03-30T12:58:17.551Z,0.90
2023-03-30T12:59:17.488Z,1.00
2023-03-30T13:00:17.470Z,0.80
2023-03-30T13:01:17.573Z,0.90
2023-03-30T13:02:17.446Z,0.80
2023-03-30T13:03:17.464Z,1.00
2023-03-30T13:04:17.497Z,1.10
2023-03-30T13:05:17.441Z,0.80
2023-03-30T13:06:17.422Z,0.80
2023-03-30T13:07:17.419Z,1.00
2023-03-30T13:08:17.388Z,1.20
2023-03-30T13:09:17.436Z,1.20
2023-03-30T13:10:17.362Z,0.80
2023-03-30T13:11:17.386Z,1.30
2023-03-30T13:12:17.357Z,1.20
2023-03-30T13:13:17.389Z,1.00
2023-03-30T13:14:17.356Z,1.50
2023-03-30T13:15:17.322Z,1.10
2023-03-30T13:16:17.355Z,0.90